Time;durP1;ratioP1;P1;durP2;ratioP2;P2;SDS_P1;SDS_P2;PMS_P1;PMS_P2;Temp;Humidity;BMP_temperature;BMP_pressure;BME280_temperature;BME280_humidity;BME280_pressure;Samples;Min_cycle;Max_cycle;Signal;HPM_P1;HPM_P2
2023/04/08 00:00:58;;;;;;;32.73;15.33;;;7.40;99.90;;;;;;10373428;28;20266;-79
2023/04/08 00:06:39;;;;;;;22.80;14.40;;;7.40;99.90;;;;;;10360064;28;20208;-78
2023/04/08 00:12:00;;;;;;;23.80;15.30;;;7.50;99.90;;;;;;10381024;28;20203;-77
2023/04/08 00:17:22;;;;;;;23.77;14.87;;;7.50;99.90;;;;;;10400067;28;20188;-78
2023/04/08 00:22:43;;;;;;;26.70;14.97;;;7.50;99.90;;;;;;10398691;28;20365;-78
2023/04/08 00:28:04;;;;;;;24.23;14.73;;;7.50;99.90;;;;;;10398668;28;20256;-80
2023/04/08 00:33:42;;;;;;;24.80;14.40;;;7.50;99.90;;;;;;11128272;23;20298;-75
2023/04/08 00:39:05;;;;;;;21.93;14.93;;;7.50;99.90;;;;;;10272757;28;20229;-75
2023/04/08 00:44:27;;;;;;;28.80;16.47;;;7.60;99.90;;;;;;10274571;29;20193;-75
2023/04/08 00:49:49;;;;;;;27.47;15.47;;;7.50;99.90;;;;;;10250498;29;20198;-78
2023/04/08 00:55:10;;;;;;;25.27;15.13;;;7.60;99.90;;;;;;10272875;29;20256;-76
2023/04/08 01:00:32;;;;;;;33.07;22.10;;;7.60;99.90;;;;;;10277671;29;20278;-75
2023/04/08 01:06:17;;;;;;;24.80;17.73;;;7.60;99.90;;;;;;10275592;29;20207;-79
2023/04/08 01:11:43;;;;;;;33.17;23.50;;;7.60;99.90;;;;;;10244425;29;20467;-81
2023/04/08 01:17:05;;;;;;;36.67;24.97;;;7.70;99.90;;;;;;10275197;28;20199;-80
2023/04/08 01:22:54;;;;;;;36.57;25.47;;;7.70;99.90;;;;;;10275864;29;20249;-77
2023/04/08 01:28:18;;;;;;;26.47;19.50;;;7.70;99.90;;;;;;10276304;28;20378;-80
2023/04/08 01:33:39;;;;;;;26.47;18.07;;;7.70;99.90;;;;;;10245308;28;20211;-77
2023/04/08 01:39:04;;;;;;;23.03;15.60;;;7.70;99.90;;;;;;10257173;29;20536;-77
2023/04/08 01:44:26;;;;;;;24.20;14.50;;;7.60;99.90;;;;;;10274883;29;20216;-80
2023/04/08 01:49:49;;;;;;;22.87;14.53;;;7.60;99.90;;;;;;10288623;28;20399;-78
2023/04/08 01:55:11;;;;;;;22.37;14.37;;;7.60;99.90;;;;;;10258762;29;20534;-78
2023/04/08 02:00:34;;;;;;;26.43;16.73;;;7.60;99.90;;;;;;10258343;29;20232;-77
2023/04/08 02:05:56;;;;;;;26.20;16.20;;;7.70;99.90;;;;;;10260098;29;20239;-79
2023/04/08 02:11:17;;;;;;;30.10;17.57;;;7.70;99.90;;;;;;10248155;29;20198;-78
2023/04/08 02:16:52;;;;;;;25.87;16.03;;;7.60;99.90;;;;;;10247882;29;20214;-78
2023/04/08 02:22:28;;;;;;;25.20;15.83;;;7.70;99.90;;;;;;10259715;29;20225;-78
2023/04/08 02:27:51;;;;;;;28.23;17.07;;;7.60;99.90;;;;;;10274527;29;20243;-79
2023/04/08 02:33:14;;;;;;;29.53;17.13;;;7.60;99.90;;;;;;10275365;29;20227;-77
2023/04/08 02:38:35;;;;;;;22.80;15.50;;;7.60;99.90;;;;;;10284806;28;20240;-78
2023/04/08 02:43:57;;;;;;;24.23;15.27;;;7.60;99.90;;;;;;10271589;29;20204;-78
2023/04/08 02:49:18;;;;;;;26.23;17.07;;;7.60;99.90;;;;;;10274817;29;20494;-78
2023/04/08 02:54:39;;;;;;;24.73;16.50;;;7.60;99.90;;;;;;10273210;29;20208;-78
2023/04/08 03:00:03;;;;;;;25.00;16.07;;;7.50;99.90;;;;;;10275740;29;20230;-78
2023/04/08 03:05:25;;;;;;;22.93;14.63;;;7.50;99.90;;;;;;10297011;28;20200;-78
2023/04/08 03:10:46;;;;;;;27.03;15.73;;;7.60;99.90;;;;;;10279815;29;20574;-78
2023/04/08 03:16:09;;;;;;;31.67;18.53;;;7.60;99.90;;;;;;10281748;29;20431;-78
2023/04/08 03:21:31;;;;;;;24.60;17.23;;;7.60;99.90;;;;;;10293200;28;20236;-78
2023/04/08 03:26:52;;;;;;;27.93;17.73;;;7.50;99.90;;;;;;10265952;29;20185;-78
2023/04/08 03:32:13;;;;;;;23.90;17.60;;;7.50;99.90;;;;;;10241320;29;20205;-80
2023/04/08 03:37:34;;;;;;;28.40;16.50;;;7.50;99.90;;;;;;10261399;29;20231;-80
2023/04/08 03:42:55;;;;;;;26.20;16.07;;;7.50;99.90;;;;;;10253235;29;20223;-77
2023/04/08 03:48:17;;;;;;;31.60;15.67;;;7.40;99.90;;;;;;10257022;29;20209;-77
2023/04/08 03:53:37;;;;;;;22.27;14.30;;;7.40;99.90;;;;;;10240320;29;20202;-78
2023/04/08 03:58:58;;;;;;;21.13;15.33;;;7.40;99.90;;;;;;10242051;29;20383;-80
2023/04/08 04:04:20;;;;;;;21.90;15.80;;;7.30;99.90;;;;;;10281538;28;20205;-77
2023/04/08 04:09:41;;;;;;;29.70;16.07;;;7.20;99.90;;;;;;10251105;28;20366;-77
2023/04/08 04:15:03;;;;;;;30.50;16.00;;;7.10;99.90;;;;;;10264776;29;20261;-77
2023/04/08 04:20:24;;;;;;;25.37;16.83;;;7.00;99.90;;;;;;10260942;29;20312;-81
2023/04/08 04:25:46;;;;;;;24.50;15.77;;;6.90;99.90;;;;;;10277807;29;20201;-80
2023/04/08 04:31:07;;;;;;;26.00;15.17;;;6.90;99.90;;;;;;10277714;29;20211;-80
2023/04/08 04:36:28;;;;;;;29.40;16.90;;;6.80;99.90;;;;;;10291202;28;20603;-78
2023/04/08 04:41:49;;;;;;;25.57;16.30;;;6.80;99.90;;;;;;10274583;29;20233;-79
2023/04/08 04:47:10;;;;;;;26.43;15.60;;;6.80;99.90;;;;;;10262574;29;20220;-79
2023/04/08 04:52:31;;;;;;;30.80;17.07;;;6.80;99.90;;;;;;10221746;29;20388;-77
2023/04/08 04:57:52;;;;;;;25.60;17.43;;;6.80;99.90;;;;;;10241735;29;20212;-78
2023/04/08 05:03:13;;;;;;;26.97;17.33;;;6.80;99.90;;;;;;10237212;29;20226;-79
2023/04/08 05:08:35;;;;;;;26.83;16.77;;;6.90;99.90;;;;;;10241277;29;20205;-77
2023/04/08 05:13:55;;;;;;;29.93;19.10;;;6.90;99.90;;;;;;10237552;29;20202;-78
2023/04/08 05:19:16;;;;;;;43.03;23.80;;;6.90;99.90;;;;;;10255735;29;20227;-78
2023/04/08 05:24:37;;;;;;;48.03;26.43;;;7.00;99.90;;;;;;10276760;29;20206;-78
2023/04/08 05:29:58;;;;;;;42.47;22.40;;;7.00;99.90;;;;;;10274726;29;20208;-77
2023/04/08 05:35:20;;;;;;;34.70;19.60;;;7.00;99.90;;;;;;10276206;28;20250;-77
2023/04/08 05:40:41;;;;;;;35.43;22.33;;;7.10;99.90;;;;;;10265221;29;20570;-77
2023/04/08 05:46:09;;;;;;;42.87;24.30;;;7.20;99.90;;;;;;10274704;29;20249;-77
2023/04/08 05:51:30;;;;;;;42.70;26.70;;;7.40;99.90;;;;;;10228302;29;20257;-80
2023/04/08 05:56:51;;;;;;;40.80;25.67;;;7.50;99.90;;;;;;10235654;29;20198;-77
2023/04/08 06:02:13;;;;;;;36.70;23.77;;;7.70;99.90;;;;;;10273101;29;20235;-77
2023/04/08 06:07:34;;;;;;;31.57;20.57;;;7.80;99.90;;;;;;10273987;29;20190;-77
2023/04/08 06:12:55;;;;;;;32.33;22.07;;;8.00;99.90;;;;;;10275491;28;20201;-77
2023/04/08 06:18:16;;;;;;;34.10;22.33;;;8.00;99.90;;;;;;10273837;29;20203;-77
2023/04/08 06:23:37;;;;;;;39.13;22.27;;;8.10;99.90;;;;;;10274808;29;20418;-77
2023/04/08 06:28:59;;;;;;;30.50;20.50;;;8.20;99.90;;;;;;10259002;29;20233;-77
2023/04/08 06:34:20;;;;;;;28.63;17.87;;;8.40;99.90;;;;;;10257058;28;20240;-77
2023/04/08 06:39:41;;;;;;;24.53;17.43;;;8.50;99.90;;;;;;10258392;29;20231;-79
2023/04/08 06:45:03;;;;;;;40.63;22.67;;;8.60;99.90;;;;;;10285035;28;20193;-77
2023/04/08 06:50:25;;;;;;;36.17;23.67;;;8.60;99.90;;;;;;10237989;29;20288;-77
2023/04/08 06:55:46;;;;;;;33.30;21.17;;;8.60;99.90;;;;;;10217421;29;20251;-77
2023/04/08 07:01:07;;;;;;;25.43;17.97;;;8.80;99.90;;;;;;10237879;29;20291;-79
2023/04/08 07:06:28;;;;;;;27.00;16.70;;;8.90;99.90;;;;;;10234153;29;20188;-77
2023/04/08 07:11:49;;;;;;;25.03;17.67;;;9.00;99.90;;;;;;10257914;29;20234;-78
2023/04/08 07:17:10;;;;;;;21.93;15.70;;;9.10;99.90;;;;;;10256766;29;20225;-77
2023/04/08 07:22:31;;;;;;;28.80;15.37;;;9.30;99.90;;;;;;10261707;28;20577;-77
2023/04/08 07:27:52;;;;;;;25.73;17.43;;;9.70;99.90;;;;;;10258528;28;20432;-81
2023/04/08 07:33:14;;;;;;;27.20;16.97;;;10.00;99.90;;;;;;10263850;29;20207;-78
2023/04/08 07:38:35;;;;;;;22.83;16.00;;;10.40;99.90;;;;;;10278905;28;20247;-77
2023/04/08 07:43:56;;;;;;;23.83;15.23;;;10.70;99.90;;;;;;10280557;29;20228;-77
2023/04/08 07:49:17;;;;;;;24.20;13.90;;;11.20;99.90;;;;;;10247642;29;20211;-78
2023/04/08 07:54:38;;;;;;;20.10;14.33;;;11.80;99.90;;;;;;10240671;29;20428;-80
2023/04/08 07:59:59;;;;;;;17.87;12.03;;;12.20;99.90;;;;;;10226921;28;20286;-76
2023/04/08 08:05:20;;;;;;;14.30;10.32;;;12.70;99.90;;;;;;10240043;29;20278;-77
2023/04/08 08:10:41;;;;;;;18.45;12.07;;;13.20;99.90;;;;;;10255702;29;20258;-77
2023/04/08 08:16:03;;;;;;;17.77;12.63;;;13.30;99.60;;;;;;10240358;29;20196;-77
2023/04/08 08:21:25;;;;;;;17.45;11.70;;;13.00;99.90;;;;;;10254409;29;20306;-77
2023/04/08 08:26:47;;;;;;;49.50;24.58;;;12.80;99.90;;;;;;10252226;29;20201;-76
2023/04/08 08:32:08;;;;;;;27.53;16.87;;;12.60;99.90;;;;;;10273880;28;20536;-76
2023/04/08 08:37:29;;;;;;;24.10;13.97;;;12.30;99.90;;;;;;10259956;28;20253;-79
2023/04/08 08:42:51;;;;;;;16.75;11.00;;;12.40;99.90;;;;;;10275273;29;20317;-78
2023/04/08 08:48:13;;;;;;;16.63;12.77;;;12.50;99.90;;;;;;10247422;29;20202;-76
2023/04/08 08:53:34;;;;;;;17.95;13.10;;;12.70;99.90;;;;;;10280495;29;20198;-75
2023/04/08 08:58:55;;;;;;;21.85;14.55;;;13.00;99.90;;;;;;10281704;29;20207;-78
2023/04/08 09:04:19;;;;;;;47.65;20.35;;;13.20;99.90;;;;;;10231488;29;20204;-77
2023/04/08 09:09:50;;;;;;;21.73;13.85;;;13.80;99.90;;;;;;10248934;29;20542;-77
2023/04/08 09:15:11;;;;;;;21.55;14.00;;;14.30;98.00;;;;;;10241482;29;20410;-78
2023/04/08 09:20:32;;;;;;;19.55;13.30;;;15.10;93.70;;;;;;10258571;29;20235;-77
2023/04/08 09:26:01;;;;;;;16.75;11.25;;;;;;;;;;10262330;29;20201;-78
2023/04/08 09:31:24;;;;;;;19.55;13.38;;;;;;;;;;10274972;29;20488;-78
2023/04/08 09:36:45;;;;;;;13.15;8.25;;;15.80;71.90;;;;;;10275992;28;20563;-77
2023/04/08 09:42:11;;;;;;;13.07;9.43;;;16.10;57.30;;;;;;10289938;28;20562;-78
2023/04/08 09:47:41;;;;;;;14.90;10.85;;;16.70;42.60;;;;;;10274621;28;20193;-83
2023/04/08 09:53:14;;;;;;;8.02;6.80;;;17.10;36.50;;;;;;10269895;29;20245;-77
2023/04/08 09:58:45;;;;;;;7.60;5.80;;;17.80;26.20;;;;;;10273162;29;20195;-80
2023/04/08 10:04:11;;;;;;;6.95;5.32;;;18.50;21.10;;;;;;10236722;29;20407;-77
2023/04/08 10:09:37;;;;;;;10.02;7.60;;;18.80;19.90;;;;;;10235343;29;20207;-78
2023/04/08 10:15:31;;;;;;;8.27;6.30;;;18.80;18.80;;;;;;10235404;29;20255;-78
2023/04/08 10:20:52;;;;;;;10.18;7.30;;;;;;;;;;10241383;29;20408;-77
2023/04/08 10:26:32;;;;;;;11.18;9.55;;;20.10;30.20;;;;;;10275285;29;20250;-77
2023/04/08 10:31:53;;;;;;;11.63;8.23;;;19.90;15.90;;;;;;10259174;29;20246;-77
2023/04/08 10:37:15;;;;;;;9.07;6.70;;;;;;;;;;10257181;28;20262;-78
2023/04/08 10:42:37;;;;;;;9.85;7.75;;;21.20;13.60;;;;;;10256318;29;20262;-77
2023/04/08 10:48:19;;;;;;;9.98;7.88;;;21.80;10.40;;;;;;10268871;29;20212;-79
2023/04/08 10:53:40;;;;;;;13.48;10.90;;;21.60;11.00;;;;;;10238634;29;20569;-78
2023/04/08 10:59:02;;;;;;;9.65;7.20;;;21.70;11.10;;;;;;10238618;29;20214;-78
2023/04/08 11:04:24;;;;;;;15.75;8.68;;;21.60;10.20;;;;;;10242805;29;20200;-80
2023/04/08 11:09:45;;;;;;;8.30;6.85;;;21.50;10.40;;;;;;10260207;29;20208;-83
2023/04/08 11:15:07;;;;;;;9.07;6.63;;;21.10;9.60;;;;;;10242948;29;20222;-77
2023/04/08 11:20:28;;;;;;;8.43;6.65;;;21.40;8.60;;;;;;10267388;29;20232;-78
2023/04/08 11:25:50;;;;;;;9.60;6.90;;;21.20;8.10;;;;;;10281839;29;20199;-78
2023/04/08 11:31:12;;;;;;;8.35;6.38;;;21.30;8.20;;;;;;10280342;29;20289;-77
2023/04/08 11:36:35;;;;;;;10.10;8.13;;;21.80;7.40;;;;;;10295812;29;20223;-78
2023/04/08 11:41:56;;;;;;;9.10;6.93;;;21.90;7.30;;;;;;10280229;29;20254;-78
2023/04/08 11:47:17;;;;;;;11.73;8.15;;;21.80;7.10;;;;;;10261071;29;20275;-78
2023/04/08 11:52:46;;;;;;;9.48;7.20;;;22.10;7.40;;;;;;10255157;28;20219;-78
2023/04/08 11:58:08;;;;;;;14.80;9.15;;;22.30;7.80;;;;;;10243753;29;20192;-79
2023/04/08 12:03:29;;;;;;;9.57;7.22;;;22.20;7.40;;;;;;10223609;29;20242;-78
2023/04/08 12:08:50;;;;;;;9.82;6.10;;;22.10;7.20;;;;;;10244006;29;20204;-79
2023/04/08 12:14:11;;;;;;;9.88;6.97;;;22.30;6.70;;;;;;10239791;29;20215;-77
2023/04/08 12:19:32;;;;;;;11.70;7.07;;;22.30;6.50;;;;;;10255521;29;20207;-77
2023/04/08 12:24:54;;;;;;;8.95;7.18;;;22.20;6.70;;;;;;10279253;29;20296;-78
2023/04/08 12:30:16;;;;;;;8.40;6.28;;;21.90;6.40;;;;;;10263176;29;20227;-78
2023/04/08 12:35:37;;;;;;;8.35;5.93;;;21.60;6.50;;;;;;10293849;28;20249;-86
2023/04/08 12:40:58;;;;;;;6.93;5.90;;;21.30;6.10;;;;;;10277784;29;20564;-81
2023/04/08 12:46:19;;;;;;;10.25;7.55;;;21.40;6.50;;;;;;10267595;29;20219;-78
2023/04/08 12:51:40;;;;;;;7.75;6.68;;;21.20;6.30;;;;;;10265542;29;20203;-78
2023/04/08 12:57:02;;;;;;;10.40;6.93;;;20.70;6.90;;;;;;10261378;29;20222;-86
2023/04/08 13:02:24;;;;;;;9.70;7.57;;;20.70;7.70;;;;;;10243763;29;20490;-80
2023/04/08 13:07:46;;;;;;;8.18;6.63;;;20.40;7.40;;;;;;10221941;29;20208;-77
2023/04/08 13:13:07;;;;;;;10.35;6.68;;;20.00;7.90;;;;;;10243950;29;20203;-79
2023/04/08 13:18:28;;;;;;;12.50;7.55;;;19.90;8.70;;;;;;10243643;29;20207;-78
2023/04/08 13:23:49;;;;;;;11.00;7.80;;;19.80;8.80;;;;;;10275963;28;20218;-84
2023/04/08 13:29:10;;;;;;;10.13;6.47;;;19.50;8.80;;;;;;10260470;29;20195;-82
2023/04/08 13:34:31;;;;;;;12.45;8.05;;;19.50;8.80;;;;;;10288791;28;20370;-77
2023/04/08 13:39:52;;;;;;;8.57;6.95;;;19.20;8.70;;;;;;10273797;29;20229;-78
2023/04/08 13:45:13;;;;;;;7.65;6.20;;;18.90;8.80;;;;;;10240027;29;20198;-77
2023/04/08 13:50:34;;;;;;;7.63;6.10;;;18.80;8.90;;;;;;10257032;29;20204;-78
2023/04/08 13:55:57;;;;;;;9.93;6.78;;;18.60;9.60;;;;;;10236223;29;20202;-78
2023/04/08 14:01:19;;;;;;;6.65;5.45;;;18.70;9.60;;;;;;10238575;29;20267;-77
2023/04/08 14:06:40;;;;;;;9.02;6.78;;;18.50;9.10;;;;;;10235970;29;20278;-77
2023/04/08 14:12:01;;;;;;;10.88;6.55;;;18.30;9.80;;;;;;10239606;29;20258;-78
2023/04/08 14:17:22;;;;;;;8.23;6.82;;;18.10;9.90;;;;;;10235154;29;20486;-78
2023/04/08 14:22:43;;;;;;;9.45;6.82;;;17.90;10.20;;;;;;10270496;29;20259;-77
2023/04/08 14:28:05;;;;;;;9.98;6.22;;;17.70;10.30;;;;;;10274607;29;20189;-83
2023/04/08 14:33:26;;;;;;;7.25;5.10;;;17.60;10.30;;;;;;10235442;29;20199;-79
2023/04/08 14:38:46;;;;;;;6.82;5.10;;;17.30;10.70;;;;;;10281836;28;20230;-76
2023/04/08 14:44:07;;;;;;;8.57;6.43;;;17.20;11.80;;;;;;10289071;28;20309;-76
2023/04/08 14:49:29;;;;;;;7.32;6.25;;;17.00;11.90;;;;;;10274961;29;20201;-77
2023/04/08 14:54:49;;;;;;;9.25;6.25;;;16.90;12.40;;;;;;10234612;29;20209;-79
2023/04/08 15:00:11;;;;;;;11.48;7.13;;;16.80;12.50;;;;;;10224743;29;20235;-77
2023/04/08 15:05:32;;;;;;;7.95;6.57;;;16.70;12.60;;;;;;10272335;29;20210;-77
2023/04/08 15:10:54;;;;;;;8.27;6.70;;;16.50;12.10;;;;;;10251104;29;20207;-79
2023/04/08 15:16:15;;;;;;;10.65;7.47;;;16.50;13.00;;;;;;10217541;29;20203;-76
2023/04/08 15:21:36;;;;;;;9.02;6.80;;;16.50;12.20;;;;;;10265315;29;20252;-79
2023/04/08 15:26:57;;;;;;;12.10;7.38;;;16.40;12.60;;;;;;10261145;29;20193;-82
2023/04/08 15:32:18;;;;;;;8.13;6.78;;;16.30;12.60;;;;;;10272783;29;20215;-79
2023/04/08 15:37:39;;;;;;;10.25;7.40;;;16.20;13.30;;;;;;10256099;29;20509;-76
2023/04/08 15:43:00;;;;;;;10.05;6.50;;;16.20;13.10;;;;;;10255927;29;20450;-77
2023/04/08 15:48:22;;;;;;;7.07;5.10;;;16.10;12.60;;;;;;10268881;28;20218;-79
2023/04/08 15:53:43;;;;;;;12.95;9.02;;;16.00;12.60;;;;;;10280840;29;20269;-76
2023/04/08 15:59:04;;;;;;;23.80;16.05;;;15.80;19.40;;;;;;10273140;29;20300;-75
2023/04/08 16:04:26;;;;;;;28.20;17.90;;;15.40;73.00;;;;;;10240595;29;20229;-78
2023/04/08 16:09:47;;;;;;;28.38;18.63;;;15.10;95.80;;;;;;10244198;29;20229;-79
2023/04/08 16:15:08;;;;;;;29.55;17.80;;;15.00;98.20;;;;;;10225854;29;20213;-77
2023/04/08 16:20:29;;;;;;;26.75;18.13;;;14.80;99.90;;;;;;10242307;29;20222;-77
2023/04/08 16:25:50;;;;;;;30.15;19.33;;;14.70;99.90;;;;;;10279701;29;20208;-77
2023/04/08 16:31:12;;;;;;;34.25;22.02;;;14.60;99.90;;;;;;10276923;29;20389;-77
2023/04/08 16:36:33;;;;;;;39.67;25.30;;;14.40;99.90;;;;;;10261573;29;20241;-75
2023/04/08 16:41:53;;;;;;;31.73;20.92;;;14.30;99.90;;;;;;10278011;29;20529;-77
2023/04/08 16:47:15;;;;;;;37.30;22.27;;;14.10;99.90;;;;;;10278607;29;20196;-78
2023/04/08 16:52:36;;;;;;;33.22;22.55;;;13.90;99.90;;;;;;10260535;29;20361;-77
2023/04/08 16:57:57;;;;;;;47.63;29.10;;;13.80;99.90;;;;;;10277549;28;20421;-77
2023/04/08 17:03:18;;;;;;;58.90;36.05;;;13.60;99.90;;;;;;10238300;29;20264;-77
2023/04/08 17:08:42;;;;;;;49.88;30.95;;;13.40;99.90;;;;;;10227680;28;20196;-79
2023/04/08 17:14:03;;;;;;;49.08;30.90;;;13.40;99.90;;;;;;10273361;28;20214;-84
2023/04/08 17:19:24;;;;;;;46.72;30.10;;;13.30;99.90;;;;;;10276659;29;20237;-77
2023/04/08 17:24:45;;;;;;;37.97;26.10;;;13.20;99.90;;;;;;10277491;29;20223;-81
2023/04/08 17:30:08;;;;;;;33.42;23.15;;;13.00;99.90;;;;;;10258943;29;20217;-78
2023/04/08 17:35:30;;;;;;;37.35;23.83;;;12.80;99.90;;;;;;10276523;29;20299;-77
2023/04/08 17:40:51;;;;;;;35.08;22.48;;;12.50;99.90;;;;;;10257065;29;20521;-77
2023/04/08 17:46:12;;;;;;;32.25;23.45;;;12.40;99.90;;;;;;10275997;29;20198;-77
2023/04/08 17:51:33;;;;;;;36.53;22.03;;;12.20;99.90;;;;;;10265474;28;20237;-84
2023/04/08 17:56:54;;;;;;;34.03;21.47;;;12.10;99.90;;;;;;10232022;29;20277;-80
2023/04/08 18:02:16;;;;;;;42.90;24.85;;;12.00;99.90;;;;;;10259244;29;20504;-79
2023/04/08 18:07:37;;;;;;;60.10;35.78;;;11.90;99.90;;;;;;10275737;28;20217;-77
2023/04/08 18:12:58;;;;;;;46.40;28.80;;;11.90;99.90;;;;;;10260994;29;20214;-82
2023/04/08 18:18:30;;;;;;;37.00;22.70;;;11.80;99.90;;;;;;10275229;29;20508;-77
2023/04/08 18:23:51;;;;;;;38.23;23.27;;;11.70;99.90;;;;;;10275240;29;20236;-76
2023/04/08 18:29:12;;;;;;;50.60;27.40;;;11.60;99.90;;;;;;10273723;29;20257;-77
2023/04/08 18:34:33;;;;;;;39.13;24.67;;;11.50;99.90;;;;;;10257232;29;20246;-76
2023/04/08 18:39:54;;;;;;;42.13;27.57;;;11.50;99.90;;;;;;10277364;28;20200;-77
2023/04/08 18:45:16;;;;;;;65.70;40.63;;;11.50;99.90;;;;;;10271266;29;20206;-77
2023/04/08 18:50:37;;;;;;;70.37;42.83;;;11.40;99.90;;;;;;10270838;29;20208;-77
2023/04/08 18:55:58;;;;;;;90.93;51.87;;;11.40;99.90;;;;;;10295671;28;20764;-76
2023/04/08 19:01:19;;;;;;;104.57;53.17;;;11.40;99.90;;;;;;10253380;29;20233;-84
2023/04/08 19:06:41;;;;;;;92.90;49.67;;;11.40;99.90;;;;;;10257869;29;20473;-77
2023/04/08 19:12:02;;;;;;;88.60;46.73;;;11.20;99.90;;;;;;10269088;28;20211;-78
2023/04/08 19:17:23;;;;;;;115.40;60.37;;;11.10;99.90;;;;;;10279244;28;20285;-78
2023/04/08 19:22:47;;;;;;;87.67;51.53;;;11.00;99.90;;;;;;10287238;28;20225;-76
2023/04/08 19:28:08;;;;;;;84.27;49.30;;;11.00;99.90;;;;;;10287924;28;20205;-78
2023/04/08 19:33:29;;;;;;;84.10;49.73;;;10.90;99.90;;;;;;10281443;29;20237;-76
2023/04/08 19:38:50;;;;;;;75.00;38.47;;;10.80;99.90;;;;;;10280590;29;20205;-78
2023/04/08 19:44:11;;;;;;;85.73;40.67;;;10.80;99.90;;;;;;10281289;29;20301;-76
2023/04/08 19:49:32;;;;;;;84.13;40.57;;;10.70;99.90;;;;;;10279761;29;20199;-77
2023/04/08 19:54:54;;;;;;;75.00;38.00;;;10.60;99.90;;;;;;10280695;29;20248;-79
2023/04/08 20:00:15;;;;;;;60.27;34.53;;;10.50;99.90;;;;;;10279836;29;20228;-77
2023/04/08 20:05:37;;;;;;;48.07;30.43;;;10.40;99.90;;;;;;10280936;29;20199;-78
2023/04/08 20:10:58;;;;;;;40.97;26.00;;;10.30;99.90;;;;;;10279505;29;20263;-82
2023/04/08 20:16:19;;;;;;;39.73;25.40;;;10.30;99.90;;;;;;10265673;29;20205;-76
2023/04/08 20:21:40;;;;;;;41.87;25.27;;;10.20;99.90;;;;;;10294181;28;20531;-77
2023/04/08 20:27:01;;;;;;;43.80;29.50;;;10.00;99.90;;;;;;10279520;29;20380;-80
2023/04/08 20:32:22;;;;;;;43.90;28.33;;;9.90;99.90;;;;;;10242507;29;20216;-80
2023/04/08 20:37:43;;;;;;;68.37;37.83;;;9.80;99.90;;;;;;10266009;28;20352;-76
2023/04/08 20:43:04;;;;;;;60.80;35.10;;;9.60;99.90;;;;;;10261935;29;20491;-76
2023/04/08 20:48:25;;;;;;;55.47;30.43;;;9.40;99.90;;;;;;10265118;29;20252;-81
2023/04/08 20:53:47;;;;;;;47.87;30.17;;;9.30;99.90;;;;;;10277570;28;20208;-77
2023/04/08 20:59:08;;;;;;;49.90;30.10;;;9.20;99.90;;;;;;10308412;28;20498;-76
2023/04/08 21:04:28;;;;;;;52.47;31.20;;;9.10;99.90;;;;;;10303737;28;20221;-76
2023/04/08 21:09:50;;;;;;;42.33;27.47;;;9.10;99.90;;;;;;10294388;28;20567;-76
2023/04/08 21:15:11;;;;;;;48.00;27.50;;;9.20;99.90;;;;;;10276609;29;20196;-76
2023/04/08 21:20:32;;;;;;;39.80;26.73;;;9.20;99.90;;;;;;10277169;29;20490;-77
2023/04/08 21:25:53;;;;;;;48.50;27.37;;;9.20;99.90;;;;;;10291080;28;20279;-76
2023/04/08 21:31:14;;;;;;;42.60;24.93;;;9.30;99.90;;;;;;10271788;29;20212;-76
2023/04/08 21:36:35;;;;;;;38.10;25.13;;;9.20;99.90;;;;;;10275376;29;20307;-76
2023/04/08 21:41:57;;;;;;;32.30;21.03;;;9.30;99.90;;;;;;10270898;29;20299;-76
2023/04/08 21:47:18;;;;;;;32.23;20.53;;;9.20;99.90;;;;;;10289084;28;20222;-76
2023/04/08 21:52:39;;;;;;;27.33;18.83;;;9.20;99.90;;;;;;10312984;28;20204;-76
2023/04/08 21:58:01;;;;;;;28.20;18.93;;;9.20;99.90;;;;;;10276194;29;20202;-78
2023/04/08 22:03:22;;;;;;;28.47;18.13;;;9.20;99.90;;;;;;10281396;28;20261;-77
2023/04/08 22:08:44;;;;;;;28.20;17.97;;;9.10;99.90;;;;;;10283512;29;20211;-80
2023/04/08 22:14:05;;;;;;;26.70;17.43;;;9.20;99.90;;;;;;10258368;29;20206;-76
2023/04/08 22:19:26;;;;;;;19.63;14.43;;;9.20;99.90;;;;;;10274634;29;20498;-76
2023/04/08 22:24:47;;;;;;;23.33;16.70;;;9.10;99.90;;;;;;10275527;29;20220;-77
2023/04/08 22:30:09;;;;;;;32.90;19.00;;;9.20;99.90;;;;;;10279882;28;20388;-77
2023/04/08 22:35:30;;;;;;;31.47;19.70;;;9.30;99.90;;;;;;10274890;29;20239;-76
2023/04/08 22:40:51;;;;;;;23.03;16.17;;;9.30;99.90;;;;;;10289484;28;20207;-76
2023/04/08 22:46:13;;;;;;;25.20;17.13;;;9.20;99.90;;;;;;10275007;29;20198;-79
2023/04/08 22:51:34;;;;;;;29.50;18.73;;;9.10;99.90;;;;;;10260956;29;20491;-77
2023/04/08 22:56:55;;;;;;;26.90;16.17;;;9.30;99.90;;;;;;10277136;28;20203;-78
2023/04/08 23:02:16;;;;;;;24.63;16.57;;;9.20;99.90;;;;;;10267624;29;20239;-77
2023/04/08 23:07:37;;;;;;;29.47;18.43;;;9.10;99.90;;;;;;10281919;29;20528;-76
2023/04/08 23:12:58;;;;;;;21.33;14.87;;;9.20;99.90;;;;;;10262348;29;20211;-76
2023/04/08 23:18:20;;;;;;;15.57;11.97;;;9.10;99.90;;;;;;10281499;29;20206;-78
2023/04/08 23:23:40;;;;;;;16.50;12.37;;;8.90;99.90;;;;;;10228205;29;20242;-76
2023/04/08 23:29:02;;;;;;;20.30;12.40;;;8.90;99.90;;;;;;10250640;29;20510;-76
2023/04/08 23:34:23;;;;;;;13.57;10.23;;;9.00;99.90;;;;;;10263418;29;20243;-76
2023/04/08 23:39:44;;;;;;;12.83;9.33;;;9.10;99.90;;;;;;10293068;28;20210;-77
2023/04/08 23:45:06;;;;;;;10.57;8.23;;;9.00;99.90;;;;;;10281206;29;20232;-77
2023/04/08 23:50:27;;;;;;;11.60;8.50;;;9.00;99.90;;;;;;10265804;29;20242;-76
2023/04/08 23:55:48;;;;;;;12.97;9.00;;;9.10;99.90;;;;;;10280580;29;20251;-76
